Weather History for Caro, MI

Change the Weather History Date:

Friday, January 17, 2014

  Actual Average (KMBS) Record (KMBS)
Temperature  
Mean Temperature 24 °F 22 °F  
Max Temperature 29 °F 29 °F 44 °F (2015)
Min Temperature 20 °F 15 °F -6 °F (1997)
Degree Days  
Heating Degree Days 40    
Month to date heating degree days  
Since 1 July heating degree days  
Cooling Degree Days 0    
Month to date cooling degree days  
Year to date cooling degree days  
Moisture  
Dew Point 20 °F    
Average Humidity 80    
Maximum Humidity 94    
Minimum Humidity 64    
Precipitation  
Precipitation 0.00 in 0.06 in 0.34 in (1999)
Month to date precipitation 1.04  
Year to date precipitation 1.04  
Snow  
Snow 0.00 in - - ()
Month to date snowfall  
Since 1 July snowfall  
Snow Depth -    
Sea Level Pressure  
Sea Level Pressure 29.72 in    
Wind  
Wind Speed 9 mph (SW)    
Max Wind Speed 16 mph    
Max Gust Speed 23 mph    
Visibility 8 miles    
Events Snow    
T = Trace of Precipitation, MM = Missing Value Source: NWS Daily Summary

Daily Weather History Graph

Daily Weather History Graph

Search for Another Location

Airport:

Trip Planner

Search our weather history database for the weather conditions in past years. The results will help you decide how hot, cold, wet, or windy it might be!

Date:

Astronomy

Jan. 17, 2014 Rise Set
Actual Time 8:02 AM EST 5:25 PM EST
Civil Twilight 7:30 AM EST 5:57 PM EST
Nautical Twilight 6:55 AM EST 6:32 PM EST
Astronomical Twilight 6:21 AM EST 7:06 PM EST
Moon 7:15 PM EST (1/17) 8:25 AM EST (1/17)
Length of Visible Light 10h 26m
Length of Day
9h 23m
Full, 98% of the Moon is Illuminated
Jan 17
Full
Jan 24
Last Quarter
Jan 30
New
Feb 6
First Quarter
Feb 14
Full

Hourly Weather History & Observations

Time (EST) Temp. Windchill Dew Point Humidity Pressure Visibility Wind Dir Wind Speed Gust Speed Precip Events Conditions
12:15 AM 27.5 °F 20.2 °F 25.7 °F 93% 29.59 in 2.5 mi SSE 6.9 mph - N/A Snow Light Snow
12:34 AM 27.3 °F 19.9 °F 25.7 °F 94% 29.59 in 3.0 mi SSE 6.9 mph - N/A Snow Light Snow
12:55 AM 27.5 °F 21.1 °F 25.7 °F 93% 29.58 in 3.0 mi SSE 5.8 mph - N/A Snow Light Snow
1:14 AM 27.5 °F 21.1 °F 25.7 °F 93% 29.58 in 3.0 mi SSE 5.8 mph - N/A Snow Light Snow
1:34 AM 27.9 °F 21.5 °F 26.1 °F 93% 29.57 in 7.0 mi SSE 5.8 mph - N/A Snow Light Snow
1:55 AM 28.2 °F 23.1 °F 26.1 °F 92% 29.57 in 10.0 mi SSE 4.6 mph - N/A   Overcast
2:14 AM 28.4 °F 21.2 °F 25.7 °F 90% 29.57 in 7.0 mi South 6.9 mph - N/A   Overcast
2:35 AM 28.4 °F 22.2 °F 25.7 °F 90% 29.57 in 7.0 mi South 5.8 mph - N/A Snow Light Snow
2:54 AM 28.4 °F 21.2 °F 25.9 °F 90% 29.57 in 7.0 mi South 6.9 mph - N/A   Overcast
3:14 AM 28.6 °F 21.5 °F 26.2 °F 91% 29.58 in 10.0 mi South 6.9 mph - N/A   Overcast
3:35 AM 28.9 °F 23.9 °F 26.2 °F 90% 29.58 in 10.0 mi South 4.6 mph - N/A   Overcast
3:54 AM 29.3 °F 24.3 °F 26.6 °F 90% 29.58 in 10.0 mi South 4.6 mph - N/A   Overcast
4:15 AM 29.3 °F 22.3 °F 26.6 °F 90% 29.58 in 10.0 mi South 6.9 mph - N/A   Overcast
4:35 AM 29.3 °F 22.3 °F 26.6 °F 90% 29.58 in 10.0 mi South 6.9 mph - N/A   Overcast
4:54 AM 29.3 °F 21.5 °F 27.1 °F 92% 29.58 in 7.0 mi SSW 8.1 mph - N/A   Overcast
5:15 AM 29.7 °F 22.0 °F 27.3 °F 91% 29.59 in 5.0 mi SSW 8.1 mph - N/A Snow Light Snow
5:34 AM 29.7 °F 21.3 °F 27.5 °F 92% 29.59 in 4.0 mi SSW 9.2 mph - N/A Snow Light Snow
5:54 AM 29.7 °F 19.6 °F 27.9 °F 93% 29.60 in 1.8 mi SSW 12.7 mph - N/A Snow Light Snow
6:15 AM 29.3 °F 18.6 °F 27.5 °F 93% 29.61 in 1.2 mi SSW 13.8 mph - N/A Snow Snow
6:34 AM 28.9 °F 19.2 °F 27.5 °F 94% 29.62 in 1.0 mi SW 11.5 mph - N/A Snow Snow
6:55 AM 28.4 °F 18.5 °F 27.0 °F 94% 29.63 in 0.8 mi SW 11.5 mph - N/A Snow Snow
7:15 AM 28.0 °F 16.1 °F 26.4 °F 94% 29.64 in 3.0 mi SW 16.1 mph 20.7 mph N/A Snow Light Snow
7:34 AM 27.5 °F 16.8 °F 25.7 °F 93% 29.65 in 4.0 mi WSW 12.7 mph - N/A Snow Light Snow
7:55 AM 27.5 °F 16.3 °F 23.9 °F 86% 29.66 in 10.0 mi SW 13.8 mph 19.6 mph N/A   Overcast
8:14 AM 27.1 °F 16.4 °F 23.0 °F 84% 29.67 in 7.0 mi WSW 12.7 mph 21.9 mph N/A   Mostly Cloudy
8:35 AM 27.0 °F 15.2 °F 22.1 °F 82% 29.68 in 10.0 mi SW 15.0 mph 21.9 mph N/A   Mostly Cloudy
8:55 AM 26.6 °F 15.2 °F 21.7 °F 82% 29.69 in 10.0 mi SW 13.8 mph 18.4 mph N/A   Overcast
9:14 AM 26.2 °F 14.2 °F 20.7 °F 79% 29.70 in 10.0 mi WSW 15.0 mph 18.4 mph N/A   Mostly Cloudy
9:35 AM 26.2 °F 14.2 °F 20.3 °F 78% 29.71 in 10.0 mi SW 15.0 mph 23.0 mph N/A   Scattered Clouds
9:55 AM 26.2 °F 15.8 °F 19.9 °F 77% 29.71 in 10.0 mi WSW 11.5 mph - N/A   Clear
10:14 AM 26.2 °F 15.8 °F 19.9 °F 77% 29.72 in 10.0 mi WSW 11.5 mph 18.4 mph N/A   Scattered Clouds
10:35 AM 25.9 °F 14.8 °F 19.4 °F 76% 29.73 in 10.0 mi WSW 12.7 mph 16.1 mph N/A   Scattered Clouds
10:54 AM 26.6 °F 15.7 °F 19.2 °F 74% 29.73 in 10.0 mi WSW 12.7 mph - N/A   Clear
11:15 AM 26.4 °F 15.5 °F 18.3 °F 71% 29.73 in 10.0 mi WSW 12.7 mph - N/A   Clear
11:35 AM 26.4 °F 16.0 °F 18.3 °F 71% 29.74 in 10.0 mi WSW 11.5 mph 17.3 mph N/A   Clear
11:54 AM 26.4 °F 16.6 °F 18.3 °F 71% 29.74 in 10.0 mi WSW 10.4 mph 17.3 mph N/A   Clear
12:15 PM 27.5 °F 19.3 °F 18.7 °F 69% 29.74 in 10.0 mi WSW 8.1 mph - N/A   Clear
12:35 PM 27.5 °F 18.0 °F 18.9 °F 70% 29.73 in 10.0 mi WSW 10.4 mph - N/A   Clear
12:54 PM 27.5 °F 18.6 °F 19.0 °F 71% 29.73 in 10.0 mi SW 9.2 mph 17.3 mph N/A   Scattered Clouds
1:15 PM 27.7 °F 18.8 °F 18.5 °F 68% 29.73 in 10.0 mi WSW 9.2 mph - N/A   Scattered Clouds
1:34 PM 27.9 °F 17.8 °F 18.5 °F 68% 29.73 in 10.0 mi West 11.5 mph - N/A   Scattered Clouds
1:54 PM 27.7 °F 18.2 °F 18.1 °F 67% 29.73 in 10.0 mi West 10.4 mph - N/A   Scattered Clouds
2:15 PM 27.9 °F 17.8 °F 18.0 °F 66% 29.74 in 10.0 mi WSW 11.5 mph - N/A   Clear
2:34 PM 27.5 °F 18.0 °F 17.6 °F 66% 29.75 in 10.0 mi WSW 10.4 mph - N/A   Clear
2:55 PM 27.5 °F 18.6 °F 16.7 °F 64% 29.75 in 10.0 mi WSW 9.2 mph - N/A   Clear
3:14 PM 27.0 °F 16.7 °F 16.5 °F 65% 29.75 in 10.0 mi WSW 11.5 mph - N/A   Clear
3:34 PM 26.6 °F 16.8 °F 16.7 °F 66% 29.77 in 10.0 mi WSW 10.4 mph - N/A   Clear
3:55 PM 26.4 °F 17.3 °F 16.9 °F 67% 29.77 in 10.0 mi WSW 9.2 mph - N/A   Clear
4:14 PM 25.5 °F 14.9 °F 16.9 °F 70% 29.77 in 10.0 mi SW 11.5 mph - N/A   Clear
4:35 PM 24.3 °F 13.3 °F 16.9 °F 73% 29.79 in 10.0 mi SW 11.5 mph - N/A   Scattered Clouds
4:55 PM 24.3 °F 16.3 °F 17.2 °F 75% 29.79 in 10.0 mi SW 6.9 mph - N/A   Mostly Cloudy
5:14 PM 24.3 °F 15.4 °F 17.4 °F 75% 29.80 in 10.0 mi SW 8.1 mph - N/A   Overcast
5:35 PM 24.4 °F 16.5 °F 17.6 °F 75% 29.81 in 10.0 mi WSW 6.9 mph - N/A   Overcast
5:55 PM 23.9 °F 14.2 °F 17.2 °F 76% 29.81 in 10.0 mi WSW 9.2 mph - N/A   Overcast
6:14 PM 23.9 °F 15.8 °F 17.4 °F 76% 29.82 in 10.0 mi West 6.9 mph - N/A   Overcast
6:35 PM 23.0 °F 13.1 °F 16.7 °F 77% 29.82 in 10.0 mi WSW 9.2 mph - N/A   Overcast
6:55 PM 22.8 °F 12.9 °F 16.3 °F 76% 29.82 in 10.0 mi WSW 9.2 mph - N/A   Overcast
7:14 PM 22.5 °F 15.1 °F 16.2 °F 77% 29.83 in 10.0 mi WSW 5.8 mph - N/A   Overcast
7:35 PM 22.3 °F 12.2 °F 16.0 °F 77% 29.84 in 10.0 mi WSW 9.2 mph - N/A   Overcast
7:54 PM 21.9 °F 11.7 °F 15.6 °F 77% 29.84 in 10.0 mi WSW 9.2 mph - N/A   Overcast
8:15 PM 21.9 °F 11.7 °F 15.4 °F 76% 29.84 in 10.0 mi WSW 9.2 mph - N/A   Overcast
8:35 PM 21.9 °F 11.7 °F 15.4 °F 76% 29.84 in 10.0 mi WSW 9.2 mph - N/A   Overcast
8:54 PM 21.7 °F 9.0 °F 15.4 °F 77% 29.84 in 10.0 mi WSW 13.8 mph 20.7 mph N/A   Overcast
9:15 PM 21.6 °F 9.9 °F 15.4 °F 77% 29.85 in 10.0 mi SW 11.5 mph 16.1 mph N/A   Overcast
9:35 PM 21.2 °F 9.5 °F 14.9 °F 77% 29.85 in 10.0 mi WSW 11.5 mph - N/A   Overcast
9:54 PM 21.0 °F 10.6 °F 14.7 °F 77% 29.86 in 10.0 mi WSW 9.2 mph - N/A   Overcast
10:15 PM 20.7 °F 10.2 °F 14.0 °F 75% 29.86 in 10.0 mi WSW 9.2 mph 19.6 mph N/A   Overcast
10:34 PM 20.7 °F 11.9 °F 14.4 °F 77% 29.86 in 10.0 mi West 6.9 mph - N/A   Overcast
10:55 PM 20.3 °F 8.3 °F 14.2 °F 77% 29.86 in 10.0 mi West 11.5 mph - N/A   Overcast
11:15 PM 20.3 °F 11.5 °F 14.4 °F 78% 29.86 in 10.0 mi WSW 6.9 mph - N/A   Overcast
11:34 PM 20.3 °F 9.8 °F 14.4 °F 78% 29.86 in 10.0 mi WSW 9.2 mph - N/A   Overcast
11:55 PM 20.3 °F 11.5 °F 14.0 °F 77% 29.85 in 10.0 mi WSW 6.9 mph - N/A   Overcast